sensor_id;sensor_type;location;lat;lon;timestamp;P1;durP1;ratioP1;P2;durP2;ratioP2
59978;SDS011;45839;44.882;20.650;2023-07-13T00:02:23;11.35;;;5.38;;
59978;SDS011;45839;44.882;20.650;2023-07-13T00:04:49;11.15;;;5.35;;
59978;SDS011;45839;44.882;20.650;2023-07-13T00:07:15;14.77;;;6.03;;
59978;SDS011;45839;44.882;20.650;2023-07-13T00:09:45;12.30;;;5.05;;
59978;SDS011;45839;44.882;20.650;2023-07-13T00:12:22;12.30;;;4.72;;
59978;SDS011;45839;44.882;20.650;2023-07-13T00:14:48;9.30;;;5.22;;
59978;SDS011;45839;44.882;20.650;2023-07-13T00:17:15;9.82;;;5.20;;
59978;SDS011;45839;44.882;20.650;2023-07-13T00:19:41;10.90;;;4.90;;
59978;SDS011;45839;44.882;20.650;2023-07-13T00:22:07;12.90;;;5.03;;
59978;SDS011;45839;44.882;20.650;2023-07-13T00:24:33;10.35;;;4.82;;
59978;SDS011;45839;44.882;20.650;2023-07-13T00:27:00;11.30;;;5.05;;
59978;SDS011;45839;44.882;20.650;2023-07-13T00:29:26;12.35;;;5.30;;
59978;SDS011;45839;44.882;20.650;2023-07-13T00:31:52;11.43;;;4.95;;
59978;SDS011;45839;44.882;20.650;2023-07-13T00:34:19;10.15;;;4.78;;
59978;SDS011;45839;44.882;20.650;2023-07-13T00:36:45;9.38;;;4.70;;
59978;SDS011;45839;44.882;20.650;2023-07-13T00:39:12;10.23;;;5.20;;
59978;SDS011;45839;44.882;20.650;2023-07-13T00:41:38;14.55;;;5.63;;
59978;SDS011;45839;44.882;20.650;2023-07-13T00:44:04;9.77;;;4.70;;
59978;SDS011;45839;44.882;20.650;2023-07-13T00:46:31;10.63;;;4.57;;
59978;SDS011;45839;44.882;20.650;2023-07-13T00:48:59;11.90;;;4.93;;
59978;SDS011;45839;44.882;20.650;2023-07-13T00:51:27;10.75;;;4.63;;
59978;SDS011;45839;44.882;20.650;2023-07-13T00:53:55;11.48;;;5.05;;
59978;SDS011;45839;44.882;20.650;2023-07-13T00:56:22;11.68;;;4.95;;
59978;SDS011;45839;44.882;20.650;2023-07-13T00:58:48;10.05;;;4.95;;
59978;SDS011;45839;44.882;20.650;2023-07-13T01:01:15;7.85;;;5.00;;
59978;SDS011;45839;44.882;20.650;2023-07-13T01:03:41;11.45;;;5.40;;
59978;SDS011;45839;44.882;20.650;2023-07-13T01:06:07;12.02;;;5.20;;
59978;SDS011;45839;44.882;20.650;2023-07-13T01:08:34;10.00;;;5.20;;
59978;SDS011;45839;44.882;20.650;2023-07-13T01:11:00;8.68;;;4.78;;
59978;SDS011;45839;44.882;20.650;2023-07-13T01:13:26;10.85;;;5.55;;
59978;SDS011;45839;44.882;20.650;2023-07-13T01:15:52;8.95;;;4.57;;
59978;SDS011;45839;44.882;20.650;2023-07-13T01:18:21;11.20;;;4.93;;
59978;SDS011;45839;44.882;20.650;2023-07-13T01:20:56;14.02;;;6.72;;
59978;SDS011;45839;44.882;20.650;2023-07-13T01:23:22;18.02;;;6.93;;
59978;SDS011;45839;44.882;20.650;2023-07-13T01:25:49;14.75;;;7.72;;
59978;SDS011;45839;44.882;20.650;2023-07-13T01:28:16;12.90;;;6.90;;
59978;SDS011;45839;44.882;20.650;2023-07-13T01:30:42;12.00;;;7.53;;
59978;SDS011;45839;44.882;20.650;2023-07-13T01:33:10;15.70;;;9.18;;
59978;SDS011;45839;44.882;20.650;2023-07-13T01:35:37;16.38;;;8.60;;
59978;SDS011;45839;44.882;20.650;2023-07-13T01:38:03;16.27;;;7.50;;
59978;SDS011;45839;44.882;20.650;2023-07-13T01:40:30;14.15;;;7.60;;
59978;SDS011;45839;44.882;20.650;2023-07-13T01:42:56;15.10;;;8.45;;
59978;SDS011;45839;44.882;20.650;2023-07-13T01:45:22;14.82;;;8.52;;
59978;SDS011;45839;44.882;20.650;2023-07-13T01:47:48;14.05;;;7.93;;
59978;SDS011;45839;44.882;20.650;2023-07-13T01:50:14;16.73;;;9.52;;
59978;SDS011;45839;44.882;20.650;2023-07-13T01:52:40;20.67;;;10.50;;
59978;SDS011;45839;44.882;20.650;2023-07-13T01:55:06;20.52;;;10.50;;
59978;SDS011;45839;44.882;20.650;2023-07-13T01:57:32;18.05;;;10.05;;
59978;SDS011;45839;44.882;20.650;2023-07-13T01:59:59;18.90;;;11.23;;
59978;SDS011;45839;44.882;20.650;2023-07-13T02:02:25;20.33;;;10.35;;
59978;SDS011;45839;44.882;20.650;2023-07-13T02:04:51;19.30;;;10.65;;
59978;SDS011;45839;44.882;20.650;2023-07-13T02:07:17;19.05;;;10.50;;
59978;SDS011;45839;44.882;20.650;2023-07-13T02:09:43;17.77;;;10.50;;
59978;SDS011;45839;44.882;20.650;2023-07-13T02:12:09;21.40;;;11.05;;
59978;SDS011;45839;44.882;20.650;2023-07-13T02:14:35;20.83;;;11.43;;
59978;SDS011;45839;44.882;20.650;2023-07-13T02:17:01;20.95;;;11.48;;
59978;SDS011;45839;44.882;20.650;2023-07-13T02:19:28;18.13;;;10.95;;
59978;SDS011;45839;44.882;20.650;2023-07-13T02:21:54;24.52;;;18.42;;
59978;SDS011;45839;44.882;20.650;2023-07-13T02:24:20;25.08;;;19.75;;
59978;SDS011;45839;44.882;20.650;2023-07-13T02:26:46;26.08;;;19.42;;
59978;SDS011;45839;44.882;20.650;2023-07-13T02:29:13;28.35;;;22.05;;
59978;SDS011;45839;44.882;20.650;2023-07-13T02:31:39;20.15;;;13.30;;
59978;SDS011;45839;44.882;20.650;2023-07-13T02:34:05;19.85;;;12.90;;
59978;SDS011;45839;44.882;20.650;2023-07-13T02:36:31;27.27;;;16.38;;
59978;SDS011;45839;44.882;20.650;2023-07-13T02:39:00;20.20;;;13.48;;
59978;SDS011;45839;44.882;20.650;2023-07-13T02:41:27;21.55;;;13.60;;
59978;SDS011;45839;44.882;20.650;2023-07-13T02:43:53;24.35;;;14.55;;
59978;SDS011;45839;44.882;20.650;2023-07-13T02:46:27;20.95;;;14.10;;
59978;SDS011;45839;44.882;20.650;2023-07-13T02:48:53;24.33;;;14.20;;
59978;SDS011;45839;44.882;20.650;2023-07-13T02:51:19;23.73;;;15.18;;
59978;SDS011;45839;44.882;20.650;2023-07-13T02:53:45;23.15;;;14.18;;
59978;SDS011;45839;44.882;20.650;2023-07-13T02:56:11;22.92;;;14.00;;
59978;SDS011;45839;44.882;20.650;2023-07-13T02:58:37;24.38;;;14.23;;
59978;SDS011;45839;44.882;20.650;2023-07-13T03:01:07;23.38;;;13.73;;
59978;SDS011;45839;44.882;20.650;2023-07-13T03:03:33;23.13;;;14.15;;
59978;SDS011;45839;44.882;20.650;2023-07-13T03:06:00;26.23;;;16.30;;
59978;SDS011;45839;44.882;20.650;2023-07-13T03:08:27;24.00;;;16.70;;
59978;SDS011;45839;44.882;20.650;2023-07-13T03:11:00;21.40;;;14.05;;
59978;SDS011;45839;44.882;20.650;2023-07-13T03:13:26;21.90;;;13.68;;
59978;SDS011;45839;44.882;20.650;2023-07-13T03:15:52;25.75;;;13.90;;
59978;SDS011;45839;44.882;20.650;2023-07-13T03:18:18;22.67;;;14.60;;
59978;SDS011;45839;44.882;20.650;2023-07-13T03:20:44;25.88;;;13.73;;
59978;SDS011;45839;44.882;20.650;2023-07-13T03:23:10;27.08;;;15.80;;
59978;SDS011;45839;44.882;20.650;2023-07-13T03:25:36;22.17;;;15.07;;
59978;SDS011;45839;44.882;20.650;2023-07-13T03:28:02;25.08;;;15.85;;
59978;SDS011;45839;44.882;20.650;2023-07-13T03:30:29;22.20;;;15.30;;
59978;SDS011;45839;44.882;20.650;2023-07-13T03:32:55;22.83;;;15.25;;
59978;SDS011;45839;44.882;20.650;2023-07-13T03:35:21;21.20;;;15.27;;
59978;SDS011;45839;44.882;20.650;2023-07-13T03:37:47;23.65;;;15.95;;
59978;SDS011;45839;44.882;20.650;2023-07-13T03:40:13;22.58;;;14.93;;
59978;SDS011;45839;44.882;20.650;2023-07-13T03:42:39;24.85;;;15.73;;
59978;SDS011;45839;44.882;20.650;2023-07-13T03:45:05;25.63;;;16.25;;
59978;SDS011;45839;44.882;20.650;2023-07-13T03:47:32;22.85;;;16.90;;
59978;SDS011;45839;44.882;20.650;2023-07-13T03:49:58;27.13;;;18.48;;
59978;SDS011;45839;44.882;20.650;2023-07-13T03:52:24;27.00;;;17.90;;
59978;SDS011;45839;44.882;20.650;2023-07-13T03:54:50;21.30;;;15.73;;
59978;SDS011;45839;44.882;20.650;2023-07-13T03:57:16;23.63;;;15.13;;
59978;SDS011;45839;44.882;20.650;2023-07-13T03:59:42;22.73;;;14.88;;
59978;SDS011;45839;44.882;20.650;2023-07-13T04:02:09;21.75;;;14.55;;
59978;SDS011;45839;44.882;20.650;2023-07-13T04:04:35;23.80;;;14.52;;
59978;SDS011;45839;44.882;20.650;2023-07-13T04:07:01;24.05;;;14.45;;
59978;SDS011;45839;44.882;20.650;2023-07-13T04:09:28;24.35;;;15.55;;
59978;SDS011;45839;44.882;20.650;2023-07-13T04:11:54;60.53;;;51.92;;
59978;SDS011;45839;44.882;20.650;2023-07-13T04:14:20;58.58;;;46.22;;
59978;SDS011;45839;44.882;20.650;2023-07-13T04:16:46;48.03;;;36.83;;
59978;SDS011;45839;44.882;20.650;2023-07-13T04:19:12;71.43;;;57.58;;
59978;SDS011;45839;44.882;20.650;2023-07-13T04:21:38;43.33;;;36.72;;
59978;SDS011;45839;44.882;20.650;2023-07-13T04:24:05;40.53;;;32.60;;
59978;SDS011;45839;44.882;20.650;2023-07-13T04:26:31;30.02;;;23.20;;
59978;SDS011;45839;44.882;20.650;2023-07-13T04:29:01;32.85;;;23.10;;
59978;SDS011;45839;44.882;20.650;2023-07-13T04:31:29;21.65;;;14.32;;
59978;SDS011;45839;44.882;20.650;2023-07-13T04:33:55;85.45;;;75.82;;
59978;SDS011;45839;44.882;20.650;2023-07-13T04:36:21;48.72;;;38.17;;
59978;SDS011;45839;44.882;20.650;2023-07-13T04:38:47;39.25;;;30.35;;
59978;SDS011;45839;44.882;20.650;2023-07-13T04:41:14;21.95;;;16.20;;
59978;SDS011;45839;44.882;20.650;2023-07-13T04:43:40;27.17;;;20.27;;
59978;SDS011;45839;44.882;20.650;2023-07-13T04:46:07;21.70;;;14.55;;
59978;SDS011;45839;44.882;20.650;2023-07-13T04:48:34;20.38;;;14.52;;
59978;SDS011;45839;44.882;20.650;2023-07-13T04:51:00;21.15;;;14.65;;
59978;SDS011;45839;44.882;20.650;2023-07-13T04:53:27;23.35;;;16.73;;
59978;SDS011;45839;44.882;20.650;2023-07-13T04:55:53;20.77;;;17.83;;
59978;SDS011;45839;44.882;20.650;2023-07-13T04:58:19;19.63;;;14.00;;
59978;SDS011;45839;44.882;20.650;2023-07-13T05:00:46;19.90;;;12.43;;
59978;SDS011;45839;44.882;20.650;2023-07-13T05:03:12;28.15;;;21.08;;
59978;SDS011;45839;44.882;20.650;2023-07-13T05:05:38;25.45;;;18.67;;
59978;SDS011;45839;44.882;20.650;2023-07-13T05:08:04;19.95;;;15.00;;
59978;SDS011;45839;44.882;20.650;2023-07-13T05:10:32;25.02;;;18.17;;
59978;SDS011;45839;44.882;20.650;2023-07-13T05:12:58;26.63;;;19.55;;
59978;SDS011;45839;44.882;20.650;2023-07-13T05:15:24;34.33;;;24.85;;
59978;SDS011;45839;44.882;20.650;2023-07-13T05:17:51;24.77;;;16.92;;
59978;SDS011;45839;44.882;20.650;2023-07-13T05:20:18;24.95;;;18.75;;
59978;SDS011;45839;44.882;20.650;2023-07-13T05:22:44;35.83;;;27.17;;
59978;SDS011;45839;44.882;20.650;2023-07-13T05:25:12;28.40;;;20.58;;
59978;SDS011;45839;44.882;20.650;2023-07-13T05:27:38;35.90;;;28.10;;
59978;SDS011;45839;44.882;20.650;2023-07-13T05:30:04;22.58;;;16.08;;
59978;SDS011;45839;44.882;20.650;2023-07-13T05:32:31;24.52;;;17.63;;
59978;SDS011;45839;44.882;20.650;2023-07-13T05:34:57;45.53;;;36.13;;
59978;SDS011;45839;44.882;20.650;2023-07-13T05:37:23;44.65;;;36.00;;
59978;SDS011;45839;44.882;20.650;2023-07-13T05:39:49;34.40;;;29.00;;
59978;SDS011;45839;44.882;20.650;2023-07-13T05:42:15;26.83;;;21.33;;
59978;SDS011;45839;44.882;20.650;2023-07-13T05:44:41;29.40;;;20.45;;
59978;SDS011;45839;44.882;20.650;2023-07-13T05:47:07;20.75;;;16.38;;
59978;SDS011;45839;44.882;20.650;2023-07-13T05:49:33;18.23;;;11.10;;
59978;SDS011;45839;44.882;20.650;2023-07-13T05:51:59;15.00;;;10.43;;
59978;SDS011;45839;44.882;20.650;2023-07-13T05:54:25;15.95;;;10.60;;
59978;SDS011;45839;44.882;20.650;2023-07-13T05:56:51;20.13;;;14.45;;
59978;SDS011;45839;44.882;20.650;2023-07-13T05:59:17;18.27;;;12.20;;
59978;SDS011;45839;44.882;20.650;2023-07-13T06:01:43;25.70;;;19.50;;
59978;SDS011;45839;44.882;20.650;2023-07-13T06:04:09;24.23;;;16.90;;
59978;SDS011;45839;44.882;20.650;2023-07-13T06:06:35;19.45;;;15.30;;
59978;SDS011;45839;44.882;20.650;2023-07-13T06:09:01;17.92;;;13.00;;
59978;SDS011;45839;44.882;20.650;2023-07-13T06:11:27;21.42;;;14.98;;
59978;SDS011;45839;44.882;20.650;2023-07-13T06:13:55;24.42;;;18.25;;
59978;SDS011;45839;44.882;20.650;2023-07-13T06:16:21;32.10;;;26.02;;
59978;SDS011;45839;44.882;20.650;2023-07-13T06:18:47;26.13;;;20.15;;
59978;SDS011;45839;44.882;20.650;2023-07-13T06:21:17;23.00;;;15.45;;
59978;SDS011;45839;44.882;20.650;2023-07-13T06:23:44;17.40;;;14.48;;
59978;SDS011;45839;44.882;20.650;2023-07-13T06:26:10;23.98;;;17.83;;
59978;SDS011;45839;44.882;20.650;2023-07-13T06:28:37;26.67;;;20.55;;
59978;SDS011;45839;44.882;20.650;2023-07-13T06:31:05;33.65;;;25.92;;
59978;SDS011;45839;44.882;20.650;2023-07-13T06:33:32;24.95;;;20.05;;
59978;SDS011;45839;44.882;20.650;2023-07-13T06:35:58;27.00;;;20.83;;
59978;SDS011;45839;44.882;20.650;2023-07-13T06:38:24;26.35;;;20.83;;
59978;SDS011;45839;44.882;20.650;2023-07-13T06:40:50;24.70;;;19.35;;
59978;SDS011;45839;44.882;20.650;2023-07-13T06:43:16;26.88;;;21.38;;
59978;SDS011;45839;44.882;20.650;2023-07-13T06:45:46;18.92;;;13.75;;
59978;SDS011;45839;44.882;20.650;2023-07-13T06:48:17;14.63;;;9.48;;
59978;SDS011;45839;44.882;20.650;2023-07-13T06:50:43;17.00;;;10.25;;
59978;SDS011;45839;44.882;20.650;2023-07-13T06:53:10;13.73;;;7.90;;
59978;SDS011;45839;44.882;20.650;2023-07-13T06:55:37;13.95;;;7.20;;
59978;SDS011;45839;44.882;20.650;2023-07-13T06:58:03;13.82;;;6.60;;
59978;SDS011;45839;44.882;20.650;2023-07-13T07:00:29;10.98;;;6.00;;
59978;SDS011;45839;44.882;20.650;2023-07-13T07:02:55;10.68;;;6.40;;
59978;SDS011;45839;44.882;20.650;2023-07-13T07:05:21;13.68;;;5.72;;
59978;SDS011;45839;44.882;20.650;2023-07-13T07:07:48;12.85;;;6.47;;
59978;SDS011;45839;44.882;20.650;2023-07-13T07:10:14;11.00;;;6.07;;
59978;SDS011;45839;44.882;20.650;2023-07-13T07:12:40;13.93;;;6.60;;
59978;SDS011;45839;44.882;20.650;2023-07-13T07:15:06;12.27;;;6.40;;
59978;SDS011;45839;44.882;20.650;2023-07-13T07:17:32;10.50;;;6.50;;
59978;SDS011;45839;44.882;20.650;2023-07-13T07:19:58;11.30;;;6.20;;
59978;SDS011;45839;44.882;20.650;2023-07-13T07:22:24;8.07;;;5.38;;
59978;SDS011;45839;44.882;20.650;2023-07-13T07:24:53;10.18;;;5.93;;
59978;SDS011;45839;44.882;20.650;2023-07-13T07:27:19;11.25;;;5.57;;
59978;SDS011;45839;44.882;20.650;2023-07-13T07:29:45;10.65;;;5.63;;
59978;SDS011;45839;44.882;20.650;2023-07-13T07:32:11;9.35;;;5.05;;
59978;SDS011;45839;44.882;20.650;2023-07-13T07:34:37;12.80;;;5.68;;
59978;SDS011;45839;44.882;20.650;2023-07-13T07:37:03;11.48;;;5.15;;
59978;SDS011;45839;44.882;20.650;2023-07-13T07:39:29;12.05;;;5.93;;
59978;SDS011;45839;44.882;20.650;2023-07-13T07:41:55;18.23;;;7.10;;
59978;SDS011;45839;44.882;20.650;2023-07-13T07:44:22;11.00;;;6.13;;
59978;SDS011;45839;44.882;20.650;2023-07-13T07:46:48;10.07;;;5.15;;
59978;SDS011;45839;44.882;20.650;2023-07-13T07:49:14;12.30;;;5.50;;
59978;SDS011;45839;44.882;20.650;2023-07-13T07:51:40;10.35;;;4.75;;
59978;SDS011;45839;44.882;20.650;2023-07-13T07:54:06;8.27;;;4.93;;
59978;SDS011;45839;44.882;20.650;2023-07-13T07:56:32;9.10;;;4.60;;
59978;SDS011;45839;44.882;20.650;2023-07-13T07:58:58;11.82;;;5.22;;
59978;SDS011;45839;44.882;20.650;2023-07-13T08:01:24;12.40;;;4.88;;
59978;SDS011;45839;44.882;20.650;2023-07-13T08:03:50;14.65;;;5.38;;
59978;SDS011;45839;44.882;20.650;2023-07-13T08:06:17;10.80;;;4.05;;
59978;SDS011;45839;44.882;20.650;2023-07-13T08:08:44;9.77;;;4.40;;
59978;SDS011;45839;44.882;20.650;2023-07-13T08:11:11;7.75;;;4.32;;
59978;SDS011;45839;44.882;20.650;2023-07-13T08:13:37;9.23;;;4.72;;
59978;SDS011;45839;44.882;20.650;2023-07-13T08:16:04;8.27;;;4.80;;
59978;SDS011;45839;44.882;20.650;2023-07-13T08:18:31;10.07;;;4.70;;
59978;SDS011;45839;44.882;20.650;2023-07-13T08:20:57;10.90;;;4.95;;
59978;SDS011;45839;44.882;20.650;2023-07-13T08:23:23;10.70;;;5.40;;
59978;SDS011;45839;44.882;20.650;2023-07-13T08:25:50;8.23;;;4.88;;
59978;SDS011;45839;44.882;20.650;2023-07-13T08:28:16;9.45;;;5.10;;
59978;SDS011;45839;44.882;20.650;2023-07-13T08:30:42;11.77;;;5.63;;
59978;SDS011;45839;44.882;20.650;2023-07-13T08:33:08;11.65;;;5.88;;
59978;SDS011;45839;44.882;20.650;2023-07-13T08:35:34;10.13;;;5.50;;
59978;SDS011;45839;44.882;20.650;2023-07-13T08:38:00;11.20;;;5.15;;
59978;SDS011;45839;44.882;20.650;2023-07-13T08:40:27;11.73;;;5.57;;
59978;SDS011;45839;44.882;20.650;2023-07-13T08:42:54;10.57;;;5.90;;
59978;SDS011;45839;44.882;20.650;2023-07-13T08:50:19;10.55;;;5.45;;
59978;SDS011;45839;44.882;20.650;2023-07-13T08:52:47;14.05;;;5.47;;
59978;SDS011;45839;44.882;20.650;2023-07-13T08:55:15;13.00;;;5.82;;
59978;SDS011;45839;44.882;20.650;2023-07-13T08:57:42;9.35;;;5.57;;
59978;SDS011;45839;44.882;20.650;2023-07-13T09:00:10;11.32;;;5.68;;
59978;SDS011;45839;44.882;20.650;2023-07-13T09:05:33;9.70;;;6.30;;
59978;SDS011;45839;44.882;20.650;2023-07-13T09:08:02;11.13;;;5.82;;
59978;SDS011;45839;44.882;20.650;2023-07-13T09:15:41;13.60;;;6.75;;
59978;SDS011;45839;44.882;20.650;2023-07-13T09:18:18;15.20;;;6.00;;
59978;SDS011;45839;44.882;20.650;2023-07-13T09:20:51;9.25;;;6.03;;
59978;SDS011;45839;44.882;20.650;2023-07-13T09:23:19;10.10;;;5.80;;
59978;SDS011;45839;44.882;20.650;2023-07-13T09:25:49;12.82;;;6.18;;
59978;SDS011;45839;44.882;20.650;2023-07-13T09:31:07;9.63;;;6.15;;
59978;SDS011;45839;44.882;20.650;2023-07-13T09:33:37;12.18;;;6.53;;
59978;SDS011;45839;44.882;20.650;2023-07-13T09:38:42;13.55;;;6.50;;
59978;SDS011;45839;44.882;20.650;2023-07-13T09:44:01;10.25;;;5.68;;
59978;SDS011;45839;44.882;20.650;2023-07-13T09:46:27;11.75;;;5.25;;
59978;SDS011;45839;44.882;20.650;2023-07-13T09:48:53;13.65;;;5.88;;
59978;SDS011;45839;44.882;20.650;2023-07-13T09:51:21;12.38;;;5.35;;
59978;SDS011;45839;44.882;20.650;2023-07-13T09:53:48;9.48;;;5.05;;
59978;SDS011;45839;44.882;20.650;2023-07-13T09:56:18;9.15;;;5.93;;
59978;SDS011;45839;44.882;20.650;2023-07-13T09:58:44;12.82;;;4.80;;
59978;SDS011;45839;44.882;20.650;2023-07-13T10:01:10;7.75;;;4.68;;
59978;SDS011;45839;44.882;20.650;2023-07-13T10:03:37;9.63;;;5.15;;
59978;SDS011;45839;44.882;20.650;2023-07-13T10:06:12;9.63;;;4.53;;
59978;SDS011;45839;44.882;20.650;2023-07-13T10:08:38;9.00;;;4.47;;
59978;SDS011;45839;44.882;20.650;2023-07-13T10:13:40;8.70;;;4.63;;
59978;SDS011;45839;44.882;20.650;2023-07-13T10:16:07;9.52;;;4.93;;
59978;SDS011;45839;44.882;20.650;2023-07-13T10:18:39;8.30;;;4.13;;
59978;SDS011;45839;44.882;20.650;2023-07-13T10:21:14;9.30;;;4.40;;
59978;SDS011;45839;44.882;20.650;2023-07-13T10:23:41;13.77;;;4.80;;
59978;SDS011;45839;44.882;20.650;2023-07-13T10:26:18;11.90;;;5.10;;
59978;SDS011;45839;44.882;20.650;2023-07-13T10:28:45;9.43;;;4.50;;
59978;SDS011;45839;44.882;20.650;2023-07-13T10:31:14;9.70;;;4.57;;
59978;SDS011;45839;44.882;20.650;2023-07-13T10:33:41;8.45;;;4.45;;
59978;SDS011;45839;44.882;20.650;2023-07-13T10:36:18;8.70;;;4.10;;
59978;SDS011;45839;44.882;20.650;2023-07-13T10:38:45;11.02;;;4.90;;
59978;SDS011;45839;44.882;20.650;2023-07-13T10:41:15;11.02;;;4.35;;
59978;SDS011;45839;44.882;20.650;2023-07-13T10:43:43;12.13;;;5.03;;
59978;SDS011;45839;44.882;20.650;2023-07-13T10:46:12;8.10;;;4.72;;
59978;SDS011;45839;44.882;20.650;2023-07-13T10:48:40;9.48;;;6.00;;
59978;SDS011;45839;44.882;20.650;2023-07-13T10:51:08;13.52;;;4.85;;
59978;SDS011;45839;44.882;20.650;2023-07-13T10:53:36;7.38;;;4.47;;
59978;SDS011;45839;44.882;20.650;2023-07-13T10:56:03;9.15;;;4.68;;
59978;SDS011;45839;44.882;20.650;2023-07-13T10:58:40;8.27;;;4.43;;
59978;SDS011;45839;44.882;20.650;2023-07-13T11:06:12;7.43;;;4.50;;
59978;SDS011;45839;44.882;20.650;2023-07-13T11:11:47;9.88;;;5.28;;
59978;SDS011;45839;44.882;20.650;2023-07-13T11:16:51;11.70;;;5.05;;
59978;SDS011;45839;44.882;20.650;2023-07-13T11:32:42;8.63;;;4.18;;
59978;SDS011;45839;44.882;20.650;2023-07-13T11:35:12;7.88;;;4.32;;
59978;SDS011;45839;44.882;20.650;2023-07-13T11:37:39;7.63;;;4.40;;
59978;SDS011;45839;44.882;20.650;2023-07-13T11:40:05;10.85;;;4.60;;
59978;SDS011;45839;44.882;20.650;2023-07-13T11:42:31;10.30;;;4.90;;
59978;SDS011;45839;44.882;20.650;2023-07-13T11:44:57;7.38;;;4.32;;
59978;SDS011;45839;44.882;20.650;2023-07-13T11:47:25;7.88;;;4.25;;
59978;SDS011;45839;44.882;20.650;2023-07-13T11:49:54;9.63;;;4.50;;
59978;SDS011;45839;44.882;20.650;2023-07-13T11:52:28;9.25;;;4.00;;
59978;SDS011;45839;44.882;20.650;2023-07-13T11:54:57;7.80;;;4.93;;
59978;SDS011;45839;44.882;20.650;2023-07-13T11:57:29;10.57;;;4.63;;
59978;SDS011;45839;44.882;20.650;2023-07-13T11:59:56;10.93;;;4.32;;
59978;SDS011;45839;44.882;20.650;2023-07-13T12:04:53;10.85;;;4.82;;
59978;SDS011;45839;44.882;20.650;2023-07-13T12:07:19;8.73;;;4.78;;
59978;SDS011;45839;44.882;20.650;2023-07-13T12:09:45;8.98;;;4.45;;
59978;SDS011;45839;44.882;20.650;2023-07-13T12:12:17;8.55;;;4.30;;
59978;SDS011;45839;44.882;20.650;2023-07-13T12:14:43;11.52;;;4.40;;
59978;SDS011;45839;44.882;20.650;2023-07-13T12:17:19;8.88;;;4.30;;
59978;SDS011;45839;44.882;20.650;2023-07-13T12:19:46;7.05;;;3.88;;
59978;SDS011;45839;44.882;20.650;2023-07-13T12:22:13;9.20;;;4.40;;
59978;SDS011;45839;44.882;20.650;2023-07-13T12:24:40;11.52;;;4.93;;
59978;SDS011;45839;44.882;20.650;2023-07-13T12:27:13;8.07;;;4.40;;
59978;SDS011;45839;44.882;20.650;2023-07-13T12:29:48;9.75;;;4.82;;
59978;SDS011;45839;44.882;20.650;2023-07-13T12:32:15;10.95;;;4.85;;
59978;SDS011;45839;44.882;20.650;2023-07-13T12:34:53;12.13;;;4.63;;
59978;SDS011;45839;44.882;20.650;2023-07-13T12:37:19;7.80;;;4.15;;
59978;SDS011;45839;44.882;20.650;2023-07-13T12:39:46;11.75;;;4.97;;
59978;SDS011;45839;44.882;20.650;2023-07-13T12:42:17;7.85;;;4.07;;
59978;SDS011;45839;44.882;20.650;2023-07-13T12:44:49;10.00;;;4.88;;
59978;SDS011;45839;44.882;20.650;2023-07-13T12:47:15;7.30;;;4.03;;
59978;SDS011;45839;44.882;20.650;2023-07-13T12:49:47;7.30;;;4.13;;
59978;SDS011;45839;44.882;20.650;2023-07-13T12:52:14;8.18;;;4.10;;
59978;SDS011;45839;44.882;20.650;2023-07-13T12:54:41;7.30;;;4.10;;
59978;SDS011;45839;44.882;20.650;2023-07-13T12:57:08;8.00;;;4.30;;
59978;SDS011;45839;44.882;20.650;2023-07-13T12:59:39;7.38;;;4.15;;
59978;SDS011;45839;44.882;20.650;2023-07-13T13:04:51;8.65;;;4.57;;
59978;SDS011;45839;44.882;20.650;2023-07-13T13:07:17;9.60;;;4.97;;
59978;SDS011;45839;44.882;20.650;2023-07-13T13:09:45;8.25;;;4.22;;
59978;SDS011;45839;44.882;20.650;2023-07-13T13:12:12;10.50;;;4.65;;
59978;SDS011;45839;44.882;20.650;2023-07-13T13:14:38;10.32;;;4.05;;
59978;SDS011;45839;44.882;20.650;2023-07-13T13:17:07;7.70;;;4.20;;
59978;SDS011;45839;44.882;20.650;2023-07-13T13:19:44;9.27;;;4.20;;
59978;SDS011;45839;44.882;20.650;2023-07-13T13:22:10;9.10;;;3.90;;
59978;SDS011;45839;44.882;20.650;2023-07-13T13:24:36;7.65;;;4.50;;
59978;SDS011;45839;44.882;20.650;2023-07-13T13:27:02;11.18;;;4.55;;
59978;SDS011;45839;44.882;20.650;2023-07-13T13:29:31;10.25;;;4.95;;
59978;SDS011;45839;44.882;20.650;2023-07-13T13:31:57;8.70;;;4.32;;
59978;SDS011;45839;44.882;20.650;2023-07-13T13:34:25;9.73;;;4.45;;
59978;SDS011;45839;44.882;20.650;2023-07-13T13:36:51;10.90;;;4.78;;
59978;SDS011;45839;44.882;20.650;2023-07-13T13:39:34;7.75;;;4.20;;
59978;SDS011;45839;44.882;20.650;2023-07-13T13:42:01;11.18;;;4.47;;
59978;SDS011;45839;44.882;20.650;2023-07-13T13:44:27;13.07;;;4.45;;
59978;SDS011;45839;44.882;20.650;2023-07-13T13:46:53;7.13;;;3.90;;
59978;SDS011;45839;44.882;20.650;2023-07-13T13:49:24;9.35;;;3.95;;
59978;SDS011;45839;44.882;20.650;2023-07-13T13:51:51;11.80;;;4.57;;
59978;SDS011;45839;44.882;20.650;2023-07-13T13:54:18;10.50;;;5.22;;
59978;SDS011;45839;44.882;20.650;2023-07-13T13:56:45;10.25;;;5.40;;
59978;SDS011;45839;44.882;20.650;2023-07-13T13:59:12;14.23;;;5.20;;
59978;SDS011;45839;44.882;20.650;2023-07-13T14:01:39;21.80;;;14.05;;
59978;SDS011;45839;44.882;20.650;2023-07-13T14:04:06;16.88;;;10.70;;
59978;SDS011;45839;44.882;20.650;2023-07-13T14:06:35;17.60;;;11.48;;
59978;SDS011;45839;44.882;20.650;2023-07-13T14:09:01;18.23;;;9.55;;
59978;SDS011;45839;44.882;20.650;2023-07-13T14:11:27;15.02;;;8.52;;
59978;SDS011;45839;44.882;20.650;2023-07-13T14:13:55;22.70;;;12.32;;
59978;SDS011;45839;44.882;20.650;2023-07-13T14:16:24;20.38;;;9.52;;
59978;SDS011;45839;44.882;20.650;2023-07-13T14:18:52;25.73;;;14.45;;
59978;SDS011;45839;44.882;20.650;2023-07-13T14:21:20;38.28;;;24.42;;
59978;SDS011;45839;44.882;20.650;2023-07-13T14:23:47;19.45;;;10.00;;
59978;SDS011;45839;44.882;20.650;2023-07-13T14:26:14;25.77;;;13.80;;
59978;SDS011;45839;44.882;20.650;2023-07-13T14:28:42;31.42;;;19.58;;
59978;SDS011;45839;44.882;20.650;2023-07-13T14:31:09;37.47;;;23.00;;
59978;SDS011;45839;44.882;20.650;2023-07-13T14:33:35;18.70;;;8.57;;
59978;SDS011;45839;44.882;20.650;2023-07-13T14:36:02;26.42;;;16.55;;
59978;SDS011;45839;44.882;20.650;2023-07-13T14:38:28;21.30;;;11.90;;
59978;SDS011;45839;44.882;20.650;2023-07-13T14:40:54;16.27;;;9.85;;
59978;SDS011;45839;44.882;20.650;2023-07-13T14:43:20;11.80;;;5.40;;
59978;SDS011;45839;44.882;20.650;2023-07-13T14:45:46;14.73;;;8.32;;
59978;SDS011;45839;44.882;20.650;2023-07-13T14:50:40;15.07;;;5.50;;
59978;SDS011;45839;44.882;20.650;2023-07-13T14:53:09;9.90;;;5.35;;
59978;SDS011;45839;44.882;20.650;2023-07-13T14:55:35;12.68;;;6.90;;
59978;SDS011;45839;44.882;20.650;2023-07-13T14:58:01;13.00;;;6.43;;
59978;SDS011;45839;44.882;20.650;2023-07-13T15:00:27;11.18;;;5.97;;
59978;SDS011;45839;44.882;20.650;2023-07-13T15:02:55;13.38;;;5.07;;
59978;SDS011;45839;44.882;20.650;2023-07-13T15:05:23;13.25;;;4.82;;
59978;SDS011;45839;44.882;20.650;2023-07-13T15:07:50;13.93;;;4.80;;
59978;SDS011;45839;44.882;20.650;2023-07-13T15:12:44;12.85;;;3.95;;
59978;SDS011;45839;44.882;20.650;2023-07-13T15:15:10;6.78;;;4.05;;
59978;SDS011;45839;44.882;20.650;2023-07-13T15:17:41;11.65;;;4.50;;